Volga-4011 — UBNJ — position and weather

sailwx.info

Track history (hours):
 
Tides and Currents Weather Stations Pressure Air Temp Water Temp Dewpoint Dewpoint Depression Visibility Wind Speed Wind Dir Waves Ship Positions

Volga-4011

Last reported at 2014-Aug-17 04:27 UTC. Time now 2014-Sep-01 07:34 UTC.
Position N 30°56' E 122°40'.
Warning: this ship's position is 15 days out of date.

Length 140 m; draft 3.6 m.

Type: Cargo ship. MMSI: 273358200.

Date/timePositionNaut miles runAvg speedWind from/ knotsBaromVisibWave heightAir tempDewpointWater temp
2014-Aug-17 04:27N 30°56' E 122°40'7 7.8
2014-Aug-17 03:30N 30°54' E 122°32'7 7.8
2014-Aug-17 02:33N 30°52' E 122°24'7 7.2
2014-Aug-17 01:33N 30°47' E 122°18'8 8.0
2014-Aug-17 00:33N 30°39' E 122°15'8 8.5
2014-Aug-16 23:33N 30°32' E 122°09'1211.7
2014-Aug-16 22:34N 30°30' E 121°56'17 8.2
2014-Aug-16 20:32N 30°15' E 121°47'1111.0
2014-Aug-16 19:33N 30°04' E 121°48'  
2014-Aug-14 06:21N 29°59' E 121°46'1 1.7
2014-Aug-14 05:32N 29°60' E 121°47'0 0.0
2014-Aug-14 04:26N 29°60' E 121°47'0 0.1
2014-Aug-14 03:27N 29°60' E 121°47'0 0.0
2014-Aug-14 02:28N 29°60' E 121°47'0 0.1
2014-Aug-14 01:28N 29°60' E 121°47'0 0.1
2014-Aug-14 00:11N 29°60' E 121°47'0 0.0
2014-Aug-13 23:29N 29°60' E 121°47'0 0.0
2014-Aug-13 22:30N 29°60' E 121°47'0 0.0
2014-Aug-13 21:28N 29°60' E 121°47'0 0.0
2014-Aug-13 20:28N 29°60' E 121°47'0 0.1
2014-Aug-13 19:20N 29°60' E 121°47'0 0.1
2014-Aug-13 18:09N 29°60' E 121°47'0 0.1
2014-Aug-13 17:19N 29°60' E 121°47'0 0.1
2014-Aug-13 16:31N 29°60' E 121°47'0 0.0
2014-Aug-13 15:14N 29°60' E 121°47'0 0.1
2014-Aug-13 14:26N 29°60' E 121°47'0 0.0
2014-Aug-13 13:33N 29°60' E 121°47'0 0.1
2014-Aug-13 12:25N 29°60' E 121°47'0 0.1
2014-Aug-13 11:28N 29°60' E 121°47'0 0.0
2014-Aug-13 09:30N 29°60' E 121°47'0 0.0
2014-Aug-13 08:33N 29°60' E 121°47'0 0.1
2014-Aug-13 07:31N 29°60' E 121°47'0 0.1
2014-Aug-13 05:29N 29°60' E 121°47'0 0.0
2014-Aug-13 04:30N 29°60' E 121°47'0 0.0
2014-Aug-13 03:33N 29°60' E 121°47'0 0.1
2014-Aug-13 02:19N 29°60' E 121°47'0 0.0
2014-Aug-13 01:26N 29°60' E 121°47'0 0.0
2014-Aug-13 00:32N 29°60' E 121°47'0 0.2
2014-Aug-12 23:30N 29°60' E 121°47'0 0.0
2014-Aug-12 22:25N 29°60' E 121°47'0 0.0
2014-Aug-12 21:31N 29°60' E 121°47'0 0.0
2014-Aug-12 20:32N 29°60' E 121°47'0 0.1
2014-Aug-12 19:33N 29°60' E 121°47'0 0.0
2014-Aug-12 18:21N 29°60' E 121°47'0 0.1
2014-Aug-12 17:31N 29°60' E 121°47'0 0.0
2014-Aug-12 16:17N 29°60' E 121°47'0 0.0
2014-Aug-12 15:14N 29°60' E 121°47'0 0.1
2014-Aug-12 14:33N 29°60' E 121°47'0 0.0
2014-Aug-12 13:33N 29°60' E 121°47'0 0.0
2014-Aug-12 12:28N 29°60' E 121°47'0 0.2
2014-Aug-12 11:23N 29°60' E 121°47'0 0.0
2014-Aug-12 10:32N 29°60' E 121°47'0 0.0
2014-Aug-12 09:30N 29°60' E 121°47'0 0.0
2014-Aug-12 08:07N 29°60' E 121°47'0 0.1
2014-Aug-12 05:33N 29°60' E 121°47'0 0.1
2014-Aug-12 04:33N 29°60' E 121°47'0 0.0
2014-Aug-12 02:29N 29°60' E 121°47'0 0.0
2014-Aug-12 01:17N 29°60' E 121°47'0 0.0
2014-Aug-12 00:30N 29°60' E 121°47'0 0.1
2014-Aug-11 22:19N 29°60' E 121°47'0 0.0
2014-Aug-11 21:26N 29°60' E 121°47'0 0.0
2014-Aug-11 20:15N 29°60' E 121°47'0 0.1
2014-Aug-11 17:29N 29°60' E 121°47'0 0.1
2014-Aug-11 16:23N 29°60' E 121°47'0 0.0
2014-Aug-11 13:25N 29°60' E 121°47'0 0.1
2014-Aug-11 12:32N 29°60' E 121°47'0 0.1
2014-Aug-11 11:09N 29°60' E 121°47'0 0.2
2014-Aug-11 10:33N 29°60' E 121°47'0 0.0
2014-Aug-11 09:22N 29°60' E 121°47'0 0.0
2014-Aug-11 08:23N 29°60' E 121°47'0 0.0
2014-Aug-11 05:25N 29°60' E 121°47'0 0.1
2014-Aug-11 04:07N 29°60' E 121°47'0 0.2
2014-Aug-11 03:32N 29°60' E 121°47'0 0.0
2014-Aug-11 02:33N 29°60' E 121°47'0 0.0
2014-Aug-11 01:27N 29°60' E 121°47'0 0.0
2014-Aug-11 00:04N 29°60' E 121°47'0 0.0
2014-Aug-10 23:29N 29°60' E 121°47'0 0.1
2014-Aug-10 22:11N 29°60' E 121°47'0 0.0
2014-Aug-10 21:18N 29°60' E 121°47'0 0.0
2014-Aug-10 20:13N 29°60' E 121°47'0 0.0
2014-Aug-10 19:31N 29°60' E 121°47'0 0.0
2014-Aug-10 18:32N 29°60' E 121°47'0 0.1
2014-Aug-10 17:21N 29°60' E 121°47'0 0.0
2014-Aug-10 16:09N 29°60' E 121°47'0 0.2
2014-Aug-10 15:28N 29°60' E 121°47'0 0.1
2014-Aug-10 14:22N 29°60' E 121°47'0 0.1
2014-Aug-10 13:23N 29°60' E 121°47'0 0.1
2014-Aug-10 12:30N 29°60' E 121°47'0 0.0
2014-Aug-10 11:30N 29°60' E 121°47'0 0.1
2014-Aug-10 10:13N 29°60' E 121°47'0 0.0
2014-Aug-10 09:20N 29°60' E 121°47'0 0.0
2014-Aug-10 05:32N 29°60' E 121°47'1 1.5
2014-Aug-10 04:33N 30°01' E 121°48'8 5.5
2014-Aug-10 03:06N 30°09' E 121°48'3 3.7
2014-Aug-10 02:11N 30°12' E 121°47'5 6.3
2014-Aug-10 01:20N 30°17' E 121°46'13 0.6
2014-Aug-09 03:33N 30°29' E 121°54'9 8.9
2014-Aug-09 02:33N 30°32' E 122°04'8 8.0
2014-Aug-09 01:33N 30°36' E 122°12'8 8.6
2014-Aug-09 00:34N 30°44' E 122°16'9 8.5
2014-Aug-08 23:33N 30°51' E 122°22'1210.6
2014-Aug-08 22:28N 30°54' E 122°35'  
Track history (hours):
 
Tides and Currents Weather Stations Pressure Air Temp Water Temp Dewpoint Dewpoint Depression Visibility Wind Speed Wind Dir Waves Ship Positions

Volga-4011

Last reported at 2014-Aug-17 04:27 UTC. Time now 2014-Sep-01 07:34 UTC.
Position N 30°56' E 122°40'.
Warning: this ship's position is 15 days out of date.

Length 140 m; draft 3.6 m.

Type: Cargo ship. MMSI: 273358200.

Date/timePositionNaut miles runAvg speedWind from/ knotsBaromVisibWave heightAir tempDewpointWater temp
2014-Aug-17 04:27N 30°56' E 122°40'7 7.8
2014-Aug-17 03:30N 30°54' E 122°32'7 7.8
2014-Aug-17 02:33N 30°52' E 122°24'7 7.2
2014-Aug-17 01:33N 30°47' E 122°18'8 8.0
2014-Aug-17 00:33N 30°39' E 122°15'8 8.5
2014-Aug-16 23:33N 30°32' E 122°09'1211.7
2014-Aug-16 22:34N 30°30' E 121°56'17 8.2
2014-Aug-16 20:32N 30°15' E 121°47'1111.0
2014-Aug-16 19:33N 30°04' E 121°48'  
2014-Aug-14 06:21N 29°59' E 121°46'1 1.7
2014-Aug-14 05:32N 29°60' E 121°47'0 0.0
2014-Aug-14 04:26N 29°60' E 121°47'0 0.1
2014-Aug-14 03:27N 29°60' E 121°47'0 0.0
2014-Aug-14 02:28N 29°60' E 121°47'0 0.1
2014-Aug-14 01:28N 29°60' E 121°47'0 0.1
2014-Aug-14 00:11N 29°60' E 121°47'0 0.0
2014-Aug-13 23:29N 29°60' E 121°47'0 0.0
2014-Aug-13 22:30N 29°60' E 121°47'0 0.0
2014-Aug-13 21:28N 29°60' E 121°47'0 0.0
2014-Aug-13 20:28N 29°60' E 121°47'0 0.1
2014-Aug-13 19:20N 29°60' E 121°47'0 0.1
2014-Aug-13 18:09N 29°60' E 121°47'0 0.1
2014-Aug-13 17:19N 29°60' E 121°47'0 0.1
2014-Aug-13 16:31N 29°60' E 121°47'0 0.0
2014-Aug-13 15:14N 29°60' E 121°47'0 0.1
2014-Aug-13 14:26N 29°60' E 121°47'0 0.0
2014-Aug-13 13:33N 29°60' E 121°47'0 0.1
2014-Aug-13 12:25N 29°60' E 121°47'0 0.1
2014-Aug-13 11:28N 29°60' E 121°47'0 0.0
2014-Aug-13 09:30N 29°60' E 121°47'0 0.0
2014-Aug-13 08:33N 29°60' E 121°47'0 0.1
2014-Aug-13 07:31N 29°60' E 121°47'0 0.1
2014-Aug-13 05:29N 29°60' E 121°47'0 0.0
2014-Aug-13 04:30N 29°60' E 121°47'0 0.0
2014-Aug-13 03:33N 29°60' E 121°47'0 0.1
2014-Aug-13 02:19N 29°60' E 121°47'0 0.0
2014-Aug-13 01:26N 29°60' E 121°47'0 0.0
2014-Aug-13 00:32N 29°60' E 121°47'0 0.2
2014-Aug-12 23:30N 29°60' E 121°47'0 0.0
2014-Aug-12 22:25N 29°60' E 121°47'0 0.0
2014-Aug-12 21:31N 29°60' E 121°47'0 0.0
2014-Aug-12 20:32N 29°60' E 121°47'0 0.1
2014-Aug-12 19:33N 29°60' E 121°47'0 0.0
2014-Aug-12 18:21N 29°60' E 121°47'0 0.1
2014-Aug-12 17:31N 29°60' E 121°47'0 0.0
2014-Aug-12 16:17N 29°60' E 121°47'0 0.0
2014-Aug-12 15:14N 29°60' E 121°47'0 0.1
2014-Aug-12 14:33N 29°60' E 121°47'0 0.0
2014-Aug-12 13:33N 29°60' E 121°47'0 0.0
2014-Aug-12 12:28N 29°60' E 121°47'0 0.2
2014-Aug-12 11:23N 29°60' E 121°47'0 0.0
2014-Aug-12 10:32N 29°60' E 121°47'0 0.0
2014-Aug-12 09:30N 29°60' E 121°47'0 0.0
2014-Aug-12 08:07N 29°60' E 121°47'0 0.1
2014-Aug-12 05:33N 29°60' E 121°47'0 0.1
2014-Aug-12 04:33N 29°60' E 121°47'0 0.0
2014-Aug-12 02:29N 29°60' E 121°47'0 0.0
2014-Aug-12 01:17N 29°60' E 121°47'0 0.0
2014-Aug-12 00:30N 29°60' E 121°47'0 0.1
2014-Aug-11 22:19N 29°60' E 121°47'0 0.0
2014-Aug-11 21:26N 29°60' E 121°47'0 0.0
2014-Aug-11 20:15N 29°60' E 121°47'0 0.1
2014-Aug-11 17:29N 29°60' E 121°47'0 0.1
2014-Aug-11 16:23N 29°60' E 121°47'0 0.0
2014-Aug-11 13:25N 29°60' E 121°47'0 0.1
2014-Aug-11 12:32N 29°60' E 121°47'0 0.1
2014-Aug-11 11:09N 29°60' E 121°47'0 0.2
2014-Aug-11 10:33N 29°60' E 121°47'0 0.0
2014-Aug-11 09:22N 29°60' E 121°47'0 0.0
2014-Aug-11 08:23N 29°60' E 121°47'0 0.0
2014-Aug-11 05:25N 29°60' E 121°47'0 0.1
2014-Aug-11 04:07N 29°60' E 121°47'0 0.2
2014-Aug-11 03:32N 29°60' E 121°47'0 0.0
2014-Aug-11 02:33N 29°60' E 121°47'0 0.0
2014-Aug-11 01:27N 29°60' E 121°47'0 0.0
2014-Aug-11 00:04N 29°60' E 121°47'0 0.0
2014-Aug-10 23:29N 29°60' E 121°47'0 0.1
2014-Aug-10 22:11N 29°60' E 121°47'0 0.0
2014-Aug-10 21:18N 29°60' E 121°47'0 0.0
2014-Aug-10 20:13N 29°60' E 121°47'0 0.0
2014-Aug-10 19:31N 29°60' E 121°47'0 0.0
2014-Aug-10 18:32N 29°60' E 121°47'0 0.1
2014-Aug-10 17:21N 29°60' E 121°47'0 0.0
2014-Aug-10 16:09N 29°60' E 121°47'0 0.2
2014-Aug-10 15:28N 29°60' E 121°47'0 0.1
2014-Aug-10 14:22N 29°60' E 121°47'0 0.1
2014-Aug-10 13:23N 29°60' E 121°47'0 0.1
2014-Aug-10 12:30N 29°60' E 121°47'0 0.0
2014-Aug-10 11:30N 29°60' E 121°47'0 0.1
2014-Aug-10 10:13N 29°60' E 121°47'0 0.0
2014-Aug-10 09:20N 29°60' E 121°47'0 0.0
2014-Aug-10 05:32N 29°60' E 121°47'1 1.5
2014-Aug-10 04:33N 30°01' E 121°48'8 5.5
2014-Aug-10 03:06N 30°09' E 121°48'3 3.7
2014-Aug-10 02:11N 30°12' E 121°47'5 6.3
2014-Aug-10 01:20N 30°17' E 121°46'13 0.6
2014-Aug-09 03:33N 30°29' E 121°54'9 8.9
2014-Aug-09 02:33N 30°32' E 122°04'8 8.0
2014-Aug-09 01:33N 30°36' E 122°12'8 8.6
2014-Aug-09 00:34N 30°44' E 122°16'9 8.5
2014-Aug-08 23:33N 30°51' E 122°22'1210.6
2014-Aug-08 22:28N 30°54' E 122°35'  

Dump ship's entire track history